Terminal Aerodrome Forecast
Issued by NWS

Home | Current Version | Previous Version | Text Only | Print | Product List | Glossary On
Versions: 1 2 3 4 5 6 7 8 9 10 11 12 13 14 15
704
FTUS41 KLWX 281731
TAFMTN
TAF
KMTN 281731Z 2818/2918 16005KT P6SM VCTS BKN040CB
     FM282000 12008KT P6SM +TSRA BKN040CB
     FM290300 11005KT 6SM TSRA OVC060CB
     FM290600 12005KT 3SM SHRA OVC050
     FM290900 15005KT 6SM SHRA BKN050
     FM291500 31010KT P6SM BKN040=

USA.gov is the U.S. government's official web portal to all federal, state and local government web resources and services.